Time;durP1;ratioP1;P1;durP2;ratioP2;P2;SDS_P1;SDS_P2;PMS_P1;PMS_P2;Temp;Humidity;BMP_temperature;BMP_pressure;BME280_temperature;BME280_humidity;BME280_pressure;Samples;Min_cycle;Max_cycle;Signal;HPM_P1;HPM_P2
2022/07/28 00:02:55;;;;;;;5.32;1.80;;;;;;;14.86;83.80;100862.28;8355077;28;20383;-48
2022/07/28 00:06:56;;;;;;;5.72;2.35;;;;;;;14.77;85.22;100863.22;8352393;28;20036;-49
2022/07/28 00:10:56;;;;;;;3.67;2.05;;;;;;;14.49;87.80;100853.44;8353643;28;20063;-49
2022/07/28 00:14:57;;;;;;;5.55;2.22;;;;;;;14.87;85.24;100849.50;8354383;28;20508;-49
2022/07/28 00:18:57;;;;;;;3.20;1.90;;;;;;;15.37;81.80;100843.19;8353732;28;20037;-49
2022/07/28 00:22:57;;;;;;;6.97;2.05;;;;;;;15.07;81.60;100843.66;8353723;28;20457;-49
2022/07/28 00:26:59;;;;;;;5.50;1.70;;;;;;;15.30;80.01;100838.50;8354252;28;20029;-50
2022/07/28 00:30:59;;;;;;;3.15;1.30;;;;;;;15.65;78.23;100833.75;8353095;28;20056;-50
2022/07/28 00:34:59;;;;;;;2.53;1.80;;;;;;;15.51;79.97;100837.13;8352850;28;20045;-49
2022/07/28 00:39:00;;;;;;;4.80;1.52;;;;;;;15.58;77.98;100842.75;8353391;28;20047;-49
2022/07/28 00:43:00;;;;;;;5.07;1.60;;;;;;;15.61;77.70;100848.72;8352557;28;20049;-52
2022/07/28 00:47:01;;;;;;;3.47;1.30;;;;;;;15.69;77.52;100851.50;8352907;28;20041;-50
2022/07/28 00:51:01;;;;;;;5.07;1.50;;;;;;;15.71;77.36;100843.16;8352611;28;20033;-50
2022/07/28 00:55:04;;;;;;;5.32;1.60;;;;;;;15.85;76.86;100833.50;8353342;28;20036;-49
2022/07/28 00:59:04;;;;;;;3.50;1.42;;;;;;;15.92;76.51;100839.97;8352997;28;20412;-49
2022/07/28 01:03:05;;;;;;;7.85;1.63;;;;;;;15.92;76.59;100834.53;8353812;28;20091;-52
2022/07/28 01:07:32;;;;;;;9.13;1.52;;;;;;;15.79;77.13;100834.97;8351406;28;20044;-51
2022/07/28 01:12:00;;;;;;;2.95;1.60;;;;;;;15.94;76.62;100832.47;8352190;28;20520;-49
2022/07/28 01:16:03;;;;;;;9.27;1.77;;;;;;;16.00;76.70;100831.78;8345928;28;20063;-52
2022/07/28 01:20:12;;;;;;;8.18;1.65;;;;;;;16.06;76.14;100831.13;8352593;28;20421;-50
2022/07/28 01:24:40;;;;;;;2.60;1.70;;;;;;;16.04;76.63;100833.19;8356887;28;20119;-50
2022/07/28 01:29:20;;;;;;;4.38;1.25;;;;;;;16.03;76.53;100839.63;8348961;28;20040;-53
2022/07/28 01:33:28;;;;;;;5.63;1.20;;;;;;;16.04;76.94;100838.63;8353163;28;20047;-49
2022/07/28 01:37:29;;;;;;;11.82;1.48;;;;;;;16.06;76.85;100820.22;8358137;28;20162;-50
2022/07/28 01:41:33;;;;;;;3.95;1.20;;;;;;;16.03;77.06;100815.09;8359415;28;20103;-52
2022/07/28 01:45:36;;;;;;;3.42;0.95;;;;;;;16.03;77.00;100820.53;8358673;28;20037;-49
2022/07/28 01:49:38;;;;;;;4.25;1.33;;;;;;;15.99;77.25;100808.28;8358925;28;20489;-49
2022/07/28 01:53:39;;;;;;;3.20;1.10;;;;;;;15.95;77.49;100801.47;8357127;28;20040;-53
2022/07/28 01:57:41;;;;;;;10.98;1.83;;;;;;;15.91;77.53;100800.06;8358125;28;20039;-50
2022/07/28 02:01:44;;;;;;;4.57;1.73;;;;;;;15.88;77.73;100794.94;8358839;28;20039;-50
2022/07/28 02:05:49;;;;;;;9.05;2.10;;;;;;;15.84;78.11;100790.84;8357154;28;20526;-49
2022/07/28 02:09:49;;;;;;;;;;;;;;;15.79;78.72;100785.06;8357027;28;20044;-51
2022/07/28 02:13:52;;;;;;;6.30;1.20;;;;;;;15.70;79.07;100782.31;8357957;28;19935;-50
2022/07/28 02:17:54;;;;;;;2.65;1.20;;;;;;;15.52;79.79;100787.03;8357282;28;20138;-53
2022/07/28 02:21:55;;;;;;;5.80;1.45;;;;;;;15.59;79.29;100785.34;8357592;28;20044;-51
2022/07/28 02:25:59;;;;;;;3.30;1.08;;;;;;;15.65;79.18;100783.84;8357217;28;20094;-50
2022/07/28 02:30:07;;;;;;;4.15;1.40;;;;;;;15.77;78.69;100789.84;8357214;28;20080;-53
2022/07/28 02:34:11;;;;;;;5.50;1.13;;;;;;;15.78;78.82;100786.94;8351485;28;20036;-51
2022/07/28 02:38:19;;;;;;;8.68;1.45;;;;;;;15.67;79.25;100782.66;8356423;28;20045;-51
2022/07/28 02:42:26;;;;;;;7.45;1.83;;;;;;;15.69;79.08;100790.66;8351110;28;20041;-50
2022/07/28 02:46:36;;;;;;;7.32;1.52;;;;;;;15.61;79.57;100779.72;8356334;28;20381;-53
2022/07/28 02:50:39;;;;;;;6.05;1.80;;;;;;;15.36;80.83;100767.88;8386772;28;20093;-52
2022/07/28 02:54:42;;;;;;;7.60;2.00;;;;;;;15.20;81.54;100773.28;8392359;28;20074;-50
2022/07/28 02:58:44;;;;;;;4.75;1.20;;;;;;;14.94;82.94;100767.00;8386735;28;20377;-49
2022/07/28 03:02:45;;;;;;;6.57;1.67;;;;;;;15.04;82.24;100777.81;8394235;28;20041;-50
2022/07/28 03:06:46;;;;;;;5.45;2.03;;;;;;;15.12;82.28;100770.50;8393218;28;20062;-49
2022/07/28 03:10:46;;;;;;;5.47;1.58;;;;;;;14.90;82.95;100776.53;8393100;28;20047;-50
2022/07/28 03:14:47;;;;;;;4.82;1.60;;;;;;;14.79;83.34;100778.69;8393666;28;20476;-50
2022/07/28 03:18:48;;;;;;;6.22;2.20;;;;;;;14.61;83.96;100786.88;8393040;28;20037;-52
2022/07/28 03:22:48;;;;;;;3.17;1.92;;;;;;;14.37;86.55;100785.88;8415885;28;20052;-50
2022/07/28 03:27:12;;;;;;;4.22;1.83;;;;;;;14.25;88.54;100785.28;8391888;28;20041;-50
2022/07/28 03:31:14;;;;;;;3.20;1.52;;;;;;;14.14;88.32;100780.03;8392683;28;20356;-49
2022/07/28 03:35:14;;;;;;;5.53;2.40;;;;;;;14.08;88.23;100777.94;8393320;28;20048;-49
2022/07/28 03:39:17;;;;;;;7.18;1.95;;;;;;;13.40;91.94;100778.59;8391542;28;20052;-50
2022/07/28 03:43:20;;;;;;;4.35;2.33;;;;;;;13.22;94.08;100783.13;8390242;28;20029;-50
2022/07/28 03:47:22;;;;;;;3.35;1.63;;;;;;;13.69;91.44;100771.09;8392552;28;20036;-50
2022/07/28 03:51:24;;;;;;;7.45;2.20;;;;;;;13.81;90.89;100780.75;8391199;28;20039;-49
2022/07/28 03:55:25;;;;;;;4.03;1.63;;;;;;;13.64;91.74;100782.44;8391912;28;20124;-48
2022/07/28 03:59:26;;;;;;;6.85;2.17;;;;;;;13.49;91.99;100785.84;8391793;28;20032;-49
2022/07/28 04:03:26;;;;;;;8.25;2.47;;;;;;;13.11;95.08;100786.03;8392423;28;20040;-48
2022/07/28 04:07:27;;;;;;;5.18;1.83;;;;;;;12.77;97.11;100787.56;8391237;28;20039;-49
2022/07/28 04:11:27;;;;;;;11.48;2.40;;;;;;;13.23;95.69;100776.69;8391405;28;20037;-48
2022/07/28 04:15:29;;;;;;;6.32;1.92;;;;;;;12.93;97.13;100768.84;8387289;28;20051;-51
2022/07/28 04:19:30;;;;;;;7.65;2.78;;;;;;;12.94;97.34;100767.81;8388012;28;20052;-48
2022/07/28 04:23:31;;;;;;;9.02;2.35;;;;;;;13.01;96.60;100769.81;8391592;28;20040;-49
2022/07/28 04:27:33;;;;;;;3.33;2.05;;;;;;;12.71;98.71;100766.47;8390094;28;20458;-48
2022/07/28 04:31:33;;;;;;;5.13;2.15;;;;;;;12.77;98.96;100776.72;8384208;28;20036;-49
2022/07/28 04:35:35;;;;;;;6.03;2.17;;;;;;;12.86;99.51;100773.13;8391088;28;20040;-51
2022/07/28 04:39:35;;;;;;;10.52;2.20;;;;;;;13.27;97.49;100778.13;8390924;28;20086;-49
2022/07/28 04:43:37;;;;;;;5.40;2.15;;;;;;;13.73;95.09;100777.97;8391660;28;20116;-49
2022/07/28 04:47:38;;;;;;;7.15;1.95;;;;;;;14.11;91.88;100777.63;8390808;28;20115;-48
2022/07/28 04:51:39;;;;;;;3.85;2.00;;;;;;;14.10;92.69;100780.50;8390017;28;20046;-49
2022/07/28 04:55:39;;;;;;;5.82;2.03;;;;;;;14.43;90.37;100780.66;8388278;28;20045;-51
2022/07/28 04:59:40;;;;;;;3.47;2.17;;;;;;;14.09;92.84;100779.63;8389317;28;20113;-50
2022/07/28 05:03:40;;;;;;;4.63;2.00;;;;;;;14.26;93.52;100786.09;8395187;28;20037;-50
2022/07/28 05:07:41;;;;;;;4.63;2.40;;;;;;;14.55;92.93;100782.09;8395041;28;20041;-48
2022/07/28 05:11:41;;;;;;;7.03;2.35;;;;;;;14.54;94.78;100777.66;8397268;28;20039;-48
2022/07/28 05:15:42;;;;;;;5.25;2.53;;;;;;;14.78;87.60;100763.34;8397726;28;20511;-50
2022/07/28 05:19:42;;;;;;;5.70;1.83;;;;;;;14.75;90.35;100761.81;8397138;28;20051;-50
2022/07/28 05:23:42;;;;;;;7.93;3.03;;;;;;;14.33;94.26;100771.72;8394634;28;20132;-50
2022/07/28 05:27:45;;;;;;;7.70;2.35;;;;;;;14.75;90.87;100769.97;8396278;28;20452;-48
2022/07/28 05:31:45;;;;;;;8.25;2.63;;;;;;;14.66;93.77;100773.66;8396975;28;20051;-50
2022/07/28 05:35:56;;;;;;;4.38;2.28;;;;;;;14.83;95.62;100767.31;8396399;28;20040;-49
2022/07/28 05:39:56;;;;;;;8.57;3.45;;;;;;;15.02;93.40;100769.78;8396621;28;20444;-51
2022/07/28 05:43:57;;;;;;;6.60;2.30;;;;;;;15.45;91.04;100769.66;8394765;28;20048;-49
2022/07/28 05:47:57;;;;;;;4.93;2.20;;;;;;;16.29;84.94;100769.44;8372197;28;20294;-49
2022/07/28 05:51:58;;;;;;;6.05;1.80;;;;;;;16.96;80.95;100771.75;8350976;28;20147;-50
2022/07/28 05:55:58;;;;;;;9.05;2.45;;;;;;;17.10;77.95;100773.72;8349531;28;20044;-49
2022/07/28 05:59:59;;;;;;;4.90;1.80;;;;;;;16.95;80.44;100778.22;8354644;28;20390;-49
2022/07/28 06:03:59;;;;;;;6.70;1.85;;;;;;;16.82;80.71;100769.72;8355355;28;20040;-50
2022/07/28 06:07:59;;;;;;;9.10;2.15;;;;;;;16.76;82.48;100770.41;8355240;28;20037;-51
2022/07/28 06:12:00;;;;;;;6.13;1.88;;;;;;;17.24;80.92;100776.59;8353997;28;20052;-49
2022/07/28 06:16:01;;;;;;;8.23;2.25;;;;;;;17.66;76.87;100767.19;8354662;28;20041;-50
2022/07/28 06:20:02;;;;;;;6.55;1.83;;;;;;;18.04;75.40;100772.56;8355147;28;20048;-50
2022/07/28 06:24:03;;;;;;;6.68;1.65;;;;;;;18.02;75.81;100766.41;8353833;28;20124;-49
2022/07/28 06:28:04;;;;;;;5.18;2.03;;;;;;;18.21;74.25;100768.66;8356970;28;20397;-50
2022/07/28 06:32:04;;;;;;;4.82;1.40;;;;;;;18.35;72.15;100772.47;8354286;28;20067;-49
2022/07/28 06:36:05;;;;;;;5.97;1.67;;;;;;;18.65;72.83;100769.66;8354456;28;20082;-47
2022/07/28 06:40:06;;;;;;;5.35;1.92;;;;;;;18.76;70.39;100777.41;8354377;28;20044;-52
2022/07/28 06:44:08;;;;;;;8.55;1.65;;;;;;;18.96;70.85;100781.31;8354568;28;20041;-51
2022/07/28 06:48:08;;;;;;;4.88;1.27;;;;;;;19.51;69.29;100771.78;8354107;28;20500;-51
2022/07/28 06:52:09;;;;;;;5.90;1.80;;;;;;;19.43;67.18;100770.81;8354147;28;20534;-50
2022/07/28 06:56:09;;;;;;;5.72;1.88;;;;;;;19.55;67.70;100773.94;8354257;28;20058;-48
2022/07/28 07:00:13;;;;;;;4.60;1.40;;;;;;;19.65;68.19;100776.38;8353081;28;20044;-49
2022/07/28 07:04:13;;;;;;;8.97;2.13;;;;;;;19.75;67.17;100774.16;8353407;28;20052;-49
2022/07/28 07:08:13;;;;;;;8.07;1.77;;;;;;;19.97;65.91;100781.41;8354138;28;20048;-49
2022/07/28 07:12:14;;;;;;;7.13;1.88;;;;;;;20.12;66.25;100784.91;8357431;28;20458;-50
2022/07/28 07:16:14;;;;;;;9.05;1.83;;;;;;;20.48;66.78;100772.00;8349776;28;20052;-49
2022/07/28 07:20:15;;;;;;;4.63;1.58;;;;;;;20.73;65.48;100776.00;8351000;28;20041;-53
2022/07/28 07:24:16;;;;;;;10.65;2.13;;;;;;;20.85;64.64;100775.25;8352946;28;20033;-50
2022/07/28 07:28:16;;;;;;;4.50;1.70;;;;;;;20.65;63.05;100767.94;8346753;28;20049;-48
2022/07/28 07:32:17;;;;;;;4.22;1.35;;;;;;;20.61;63.32;100766.59;8349629;28;20048;-48
2022/07/28 07:36:17;;;;;;;5.70;2.10;;;;;;;20.81;62.76;100757.47;8351993;28;20082;-50
2022/07/28 07:40:18;;;;;;;8.07;2.28;;;;;;;20.99;63.38;100754.25;8351434;28;20272;-49
2022/07/28 07:44:18;;;;;;;4.18;1.80;;;;;;;20.88;61.79;100760.25;8352417;28;20563;-52
2022/07/28 07:48:19;;;;;;;7.65;1.67;;;;;;;20.77;62.26;100755.34;8351732;28;20169;-50
2022/07/28 07:52:19;;;;;;;5.40;1.70;;;;;;;21.26;62.70;100761.59;8352669;28;20147;-50
2022/07/28 07:56:20;;;;;;;8.48;1.90;;;;;;;21.30;60.82;100749.13;8351937;28;20033;-51
2022/07/28 08:00:20;;;;;;;8.68;2.00;;;;;;;21.28;60.88;100748.47;8351077;28;20040;-50
2022/07/28 08:04:21;;;;;;;2.78;1.38;;;;;;;21.38;61.44;100748.97;8350740;28;20383;-53
2022/07/28 08:08:22;;;;;;;8.20;1.90;;;;;;;21.73;61.17;100745.06;8351005;28;20117;-51
2022/07/28 08:12:23;;;;;;;7.72;1.80;;;;;;;22.19;60.68;100721.25;8350863;28;20503;-51
2022/07/28 08:16:23;;;;;;;6.60;1.65;;;;;;;21.83;60.34;100726.28;8350411;28;20401;-52
2022/07/28 08:20:24;;;;;;;5.32;1.92;;;;;;;21.78;60.51;100723.31;8347864;28;20128;-50
2022/07/28 08:24:24;;;;;;;10.07;2.47;;;;;;;22.02;60.07;100719.94;8352409;28;20036;-51
2022/07/28 08:28:25;;;;;;;7.85;1.65;;;;;;;22.13;60.04;100727.59;8352891;28;20578;-49
2022/07/28 08:32:25;;;;;;;7.63;1.63;;;;;;;22.28;59.70;100725.50;8354017;28;20110;-52
2022/07/28 08:36:25;;;;;;;4.93;1.63;;;;;;;22.29;59.07;100724.44;8352361;28;20329;-53
2022/07/28 08:40:28;;;;;;;7.78;1.92;;;;;;;22.48;58.07;100720.81;8354850;28;20295;-51
2022/07/28 08:44:44;;;;;;;9.15;2.10;;;;;;;23.05;58.27;100712.72;8356534;28;20090;-52
2022/07/28 08:48:46;;;;;;;5.28;1.48;;;;;;;23.13;56.50;100726.28;8354632;28;20049;-50
2022/07/28 08:52:49;;;;;;;7.20;1.58;;;;;;;23.35;55.76;100724.09;8356043;28;20535;-48
2022/07/28 08:56:50;;;;;;;10.38;1.50;;;;;;;23.15;56.94;100724.13;8355190;28;20037;-48
2022/07/28 09:00:51;;;;;;;3.75;1.17;;;;;;;23.54;55.57;100727.88;8355239;28;20036;-52
2022/07/28 09:04:54;;;;;;;9.48;1.67;;;;;;;23.80;54.50;100727.72;8354664;28;20116;-49
2022/07/28 09:08:54;;;;;;;7.72;1.40;;;;;;;23.94;54.17;100721.06;8354137;28;20037;-50
2022/07/28 09:12:55;;;;;;;4.18;1.10;;;;;;;23.88;53.95;100716.41;8349839;28;20095;-51
2022/07/28 09:16:58;;;;;;;3.80;1.08;;;;;;;23.76;54.38;100721.81;8347922;28;20515;-49
2022/07/28 09:20:58;;;;;;;5.80;1.48;;;;;;;23.81;54.49;100721.09;8347783;28;20037;-52
2022/07/28 09:25:02;;;;;;;3.90;1.15;;;;;;;23.77;54.10;100711.59;8353906;28;20033;-52
2022/07/28 09:29:03;;;;;;;4.72;1.30;;;;;;;24.10;54.05;100703.97;8352040;28;20064;-51
2022/07/28 09:37:26;;;;;;;16.88;2.03;;;;;;;23.98;52.93;100703.00;8409781;27;20385;-49
2022/07/28 09:41:26;;;;;;;7.80;1.50;;;;;;;24.57;52.88;100704.22;8407117;28;20047;-50
2022/07/28 09:45:27;;;;;;;5.93;1.10;;;;;;;24.41;50.82;100693.72;8407953;28;20119;-49
2022/07/28 09:49:43;;;;;;;4.63;1.08;;;;;;;24.66;51.10;100696.50;8385631;28;20055;-52
2022/07/28 09:53:44;;;;;;;4.07;1.17;;;;;;;24.63;50.62;100681.19;8388692;28;20064;-52
2022/07/28 09:57:44;;;;;;;7.10;1.10;;;;;;;25.08;50.08;100681.78;8402447;28;20094;-52
2022/07/28 10:02:01;;;;;;;5.57;1.10;;;;;;;26.17;47.25;100679.69;8386198;28;20128;-52
2022/07/28 10:06:10;;;;;;;3.38;1.02;;;;;;;27.56;46.01;100667.41;8389474;28;20033;-50
2022/07/28 10:10:10;;;;;;;3.50;1.33;;;;;;;28.81;44.23;100674.41;8394599;28;20037;-50
2022/07/28 10:14:12;;;;;;;5.70;1.00;;;;;;;28.66;42.91;100671.38;8412144;28;20098;-50
2022/07/28 10:18:12;;;;;;;6.10;1.20;;;;;;;28.92;42.94;100665.09;8399148;28;20040;-52
2022/07/28 10:22:16;;;;;;;4.63;0.80;;;;;;;28.97;43.49;100661.56;8395715;28;20142;-52
2022/07/28 10:26:20;;;;;;;4.22;0.82;;;;;;;29.78;42.54;100654.00;8382949;28;20644;-52
2022/07/28 10:30:21;;;;;;;7.88;1.23;;;;;;;29.81;42.29;100647.88;8386820;28;20043;-52
2022/07/28 10:34:45;;;;;;;4.97;1.13;;;;;;;29.57;41.67;100643.69;8390766;28;20040;-53
2022/07/28 10:38:45;;;;;;;5.45;1.05;;;;;;;30.34;41.01;100649.78;8395591;28;20056;-52
2022/07/28 10:42:46;;;;;;;9.70;1.23;;;;;;;31.47;39.91;100640.75;8388924;28;20052;-51
2022/07/28 10:46:47;;;;;;;4.85;1.10;;;;;;;30.26;40.86;100640.00;8378010;28;20143;-49
2022/07/28 10:50:48;;;;;;;2.95;1.00;;;;;;;29.65;42.25;100636.84;8373954;28;20563;-51
2022/07/28 10:55:01;;;;;;;4.70;0.85;;;;;;;30.16;41.54;100639.84;8373434;28;20040;-50
2022/07/28 10:59:41;;;;;;;3.90;1.15;;;;;;;30.13;41.59;100633.97;8367611;28;20057;-51
2022/07/28 11:03:49;;;;;;;3.75;1.02;;;;;;;29.32;41.49;100626.69;8368575;28;20054;-50
2022/07/28 11:07:49;;;;;;;8.60;1.27;;;;;;;29.87;40.86;100632.91;8384975;28;20052;-50
2022/07/28 11:11:53;;;;;;;3.22;1.10;;;;;;;30.16;40.92;100630.66;8363962;28;20056;-49
2022/07/28 11:15:55;;;;;;;5.40;0.80;;;;;;;30.31;41.16;100626.06;8373125;28;20024;-49
2022/07/28 11:19:56;;;;;;;2.40;0.90;;;;;;;29.76;40.94;100628.31;8363866;28;20116;-50
2022/07/28 11:23:57;;;;;;;2.45;0.93;;;;;;;30.71;39.88;100611.56;8370137;28;20037;-50
2022/07/28 11:27:58;;;;;;;4.00;0.85;;;;;;;30.24;40.61;100614.28;8376022;28;20481;-50
2022/07/28 11:32:00;;;;;;;2.78;0.70;;;;;;;30.22;40.58;100612.88;8371772;28;20120;-50
2022/07/28 11:36:01;;;;;;;4.28;0.93;;;;;;;31.48;39.22;100606.09;8358513;28;20036;-51
2022/07/28 11:44:41;;;;;;;5.30;1.20;;;;;;;31.78;38.79;100592.19;8391866;27;20409;-50
2022/07/28 11:49:15;;;;;;;3.60;0.98;;;;;;;30.18;40.65;100593.03;8367840;28;20029;-53
2022/07/28 11:53:17;;;;;;;4.57;1.20;;;;;;;29.70;41.60;100595.91;8366209;28;20040;-53
2022/07/28 11:57:20;;;;;;;3.22;0.82;;;;;;;28.64;42.64;100587.31;8373919;28;20123;-51
2022/07/28 12:01:20;;;;;;;4.45;1.05;;;;;;;28.53;42.91;100582.69;8370856;28;20041;-50
2022/07/28 12:05:21;;;;;;;1.95;0.80;;;;;;;27.34;44.00;100571.97;8363166;28;20044;-50
2022/07/28 12:09:28;;;;;;;6.40;1.30;;;;;;;27.14;44.68;100579.03;8350383;28;20198;-49
2022/07/28 12:13:28;;;;;;;4.47;1.13;;;;;;;27.51;44.63;100577.56;8371257;28;20064;-50
2022/07/28 12:17:32;;;;;;;3.53;0.90;;;;;;;27.52;44.50;100568.13;8370583;28;20120;-52
2022/07/28 12:21:39;;;;;;;2.40;1.17;;;;;;;27.26;44.80;100571.53;8371464;28;20041;-52
2022/07/28 12:25:42;;;;;;;3.28;0.98;;;;;;;26.95;45.40;100572.00;8363937;28;20485;-49
2022/07/28 12:29:42;;;;;;;5.78;1.60;;;;;;;26.93;45.71;100557.50;8360406;28;20098;-50
2022/07/28 12:33:43;;;;;;;2.50;0.90;;;;;;;26.75;45.70;100551.00;8373844;28;20037;-53
2022/07/28 12:37:46;;;;;;;3.72;1.15;;;;;;;27.15;44.93;100551.03;8374718;28;20120;-52
2022/07/28 12:41:48;;;;;;;3.88;0.82;;;;;;;27.29;44.93;100548.84;8351570;28;20517;-51
2022/07/28 12:45:49;;;;;;;6.97;1.65;;;;;;;26.86;45.93;100545.72;8362980;28;20405;-52
2022/07/28 12:50:07;;;;;;;6.00;0.90;;;;;;;27.03;45.69;100538.28;8368040;28;20407;-50
2022/07/28 12:54:09;;;;;;;2.80;1.05;;;;;;;26.95;45.00;100544.22;8348865;28;20041;-49
2022/07/28 12:58:26;;;;;;;4.30;0.88;;;;;;;26.85;45.12;100544.84;8337072;28;20044;-51
2022/07/28 13:02:41;;;;;;;6.03;1.00;;;;;;;26.76;44.77;100541.63;8320460;28;20132;-54
2022/07/28 13:06:52;;;;;;;3.10;0.80;;;;;;;26.99;44.42;100535.16;8322215;28;20034;-50
2022/07/28 13:10:53;;;;;;;3.17;0.88;;;;;;;27.06;44.79;100535.00;8344735;28;20486;-52
2022/07/28 13:14:55;;;;;;;3.95;0.90;;;;;;;26.81;44.66;100538.94;8350002;28;20405;-52
2022/07/28 13:19:01;;;;;;;6.13;1.13;;;;;;;26.95;44.71;100533.13;8323492;28;20121;-51
2022/07/28 13:23:01;;;;;;;3.92;1.05;;;;;;;27.08;45.30;100530.06;8330301;28;20115;-51
2022/07/28 13:27:02;;;;;;;4.20;1.73;;;;;;;26.89;44.12;100528.56;8354084;28;20041;-53
2022/07/28 13:31:03;;;;;;;4.38;1.10;;;;;;;26.90;44.29;100524.69;8331297;28;20292;-51
2022/07/28 13:35:04;;;;;;;4.15;0.70;;;;;;;27.08;44.01;100519.78;8323543;28;20038;-52
2022/07/28 13:39:06;;;;;;;1.80;0.80;;;;;;;27.05;44.23;100516.66;8323069;28;20065;-54
2022/07/28 13:43:06;;;;;;;6.07;1.00;;;;;;;26.94;45.25;100514.78;8323148;28;20051;-50
2022/07/28 13:47:07;;;;;;;4.82;0.93;;;;;;;26.73;45.24;100514.38;8354577;28;20049;-51
2022/07/28 13:51:09;;;;;;;3.97;1.05;;;;;;;26.60;44.92;100509.03;8342282;28;20037;-53
2022/07/28 13:55:10;;;;;;;4.25;1.25;;;;;;;26.77;45.02;100498.91;8346794;28;20186;-53
2022/07/28 13:59:11;;;;;;;5.50;1.23;;;;;;;26.79;44.50;100502.28;8330373;28;20120;-50
2022/07/28 14:03:12;;;;;;;6.07;1.02;;;;;;;27.00;44.97;100503.53;8330236;28;20277;-51
2022/07/28 14:07:12;;;;;;;2.50;0.80;;;;;;;26.95;44.88;100494.28;8327056;28;20053;-51
2022/07/28 14:11:14;;;;;;;3.47;0.93;;;;;;;26.88;44.66;100493.56;8322604;28;20115;-53
2022/07/28 14:15:14;;;;;;;3.25;1.10;;;;;;;26.84;44.63;100488.50;8344335;28;20275;-55
2022/07/28 14:19:16;;;;;;;4.43;0.90;;;;;;;27.14;44.42;100491.00;8353652;28;20033;-52
2022/07/28 14:23:16;;;;;;;2.10;0.90;;;;;;;27.54;45.05;100488.19;8353605;28;20310;-51
2022/07/28 14:27:16;;;;;;;2.35;0.50;;;;;;;27.26;44.06;100496.56;8353295;28;20037;-51
2022/07/28 14:31:17;;;;;;;1.52;0.77;;;;;;;27.37;44.95;100487.31;8341326;28;20037;-54
2022/07/28 14:35:18;;;;;;;2.47;0.77;;;;;;;27.16;44.46;100482.44;8349362;28;20040;-54
2022/07/28 14:39:18;;;;;;;4.03;1.00;;;;;;;27.14;44.92;100487.41;8344915;28;20028;-53
2022/07/28 14:43:19;;;;;;;3.25;0.95;;;;;;;27.18;45.11;100483.03;8340893;28;20456;-53
2022/07/28 14:47:21;;;;;;;2.92;0.85;;;;;;;27.31;45.35;100489.16;8336862;28;20112;-54
2022/07/28 14:51:21;;;;;;;2.65;0.85;;;;;;;27.42;44.99;100484.63;8338023;28;20115;-51
2022/07/28 14:55:22;;;;;;;2.63;1.08;;;;;;;27.33;44.55;100486.13;8346431;28;20034;-52
2022/07/28 14:59:22;;;;;;;3.45;0.80;;;;;;;27.35;44.90;100483.97;8347975;28;20110;-54
2022/07/28 15:03:25;;;;;;;5.53;1.00;;;;;;;27.26;44.42;100479.91;8346388;28;20060;-52
2022/07/28 15:07:26;;;;;;;4.10;0.93;;;;;;;27.16;44.74;100474.13;8331970;28;20409;-51
2022/07/28 15:11:26;;;;;;;4.88;1.02;;;;;;;27.16;44.87;100479.66;8337233;28;20059;-54
2022/07/28 15:15:27;;;;;;;3.05;1.08;;;;;;;27.30;45.38;100472.75;8349582;28;20040;-52
2022/07/28 15:19:27;;;;;;;2.90;0.80;;;;;;;27.08;45.49;100471.75;8344310;28;20456;-53
2022/07/28 15:23:28;;;;;;;3.53;1.17;;;;;;;27.06;45.93;100471.16;8344812;28;20044;-51
2022/07/28 15:27:28;;;;;;;3.72;0.90;;;;;;;27.12;45.89;100472.94;8344193;28;20136;-51
2022/07/28 15:31:29;;;;;;;2.35;0.80;;;;;;;27.17;45.38;100464.72;8334482;28;20041;-50
2022/07/28 15:35:29;;;;;;;0.93;0.60;;;;;;;27.01;45.92;100460.78;8343273;28;20036;-51
2022/07/28 15:39:29;;;;;;;4.47;0.90;;;;;;;26.96;45.40;100457.94;8333618;28;20033;-50
2022/07/28 15:43:31;;;;;;;2.42;0.60;;;;;;;27.01;45.55;100465.53;8337159;28;20335;-51
2022/07/28 15:47:32;;;;;;;1.85;0.85;;;;;;;26.97;46.25;100458.75;8329881;28;20044;-50
2022/07/28 15:51:34;;;;;;;3.15;0.98;;;;;;;26.93;45.65;100457.59;8340082;28;20171;-50
2022/07/28 15:55:34;;;;;;;3.72;1.02;;;;;;;26.81;45.25;100452.91;8338058;28;20688;-51
2022/07/28 15:59:35;;;;;;;2.45;0.70;;;;;;;26.92;46.23;100451.19;8348020;28;20037;-52
2022/07/28 16:03:35;;;;;;;3.50;1.00;;;;;;;26.89;45.77;100445.31;8346716;28;20037;-53
2022/07/28 16:07:35;;;;;;;3.33;0.82;;;;;;;26.99;46.17;100451.91;8349013;28;20048;-50
2022/07/28 16:11:36;;;;;;;5.72;1.13;;;;;;;26.79;45.45;100446.78;8343713;28;20264;-50
2022/07/28 16:15:37;;;;;;;2.22;0.93;;;;;;;26.76;46.13;100447.28;8340140;28;20060;-51
2022/07/28 16:19:38;;;;;;;6.53;1.58;;;;;;;26.68;46.81;100433.78;8364072;28;20061;-51
2022/07/28 16:23:38;;;;;;;4.80;1.10;;;;;;;26.59;48.26;100432.47;8340222;28;20044;-51
2022/07/28 16:27:38;;;;;;;3.58;1.00;;;;;;;26.43;49.45;100436.03;8344141;28;20441;-52
2022/07/28 16:31:39;;;;;;;3.80;1.17;;;;;;;26.41;49.70;100435.41;8330909;28;20406;-52
2022/07/28 16:35:40;;;;;;;2.88;0.93;;;;;;;26.39;49.49;100442.31;8326812;28;20668;-50
2022/07/28 16:39:42;;;;;;;5.20;1.13;;;;;;;26.30;49.79;100446.53;8326313;28;20038;-53
2022/07/28 16:43:42;;;;;;;5.28;1.52;;;;;;;26.35;49.81;100444.72;8336146;28;20311;-50
2022/07/28 16:47:44;;;;;;;3.63;1.08;;;;;;;26.25;50.10;100438.97;8328679;28;20668;-51
2022/07/28 16:51:44;;;;;;;4.13;1.08;;;;;;;26.23;50.36;100438.34;8330827;28;20532;-52
2022/07/28 16:55:46;;;;;;;4.68;1.45;;;;;;;26.26;50.79;100434.28;8353134;28;20520;-49
2022/07/28 16:59:47;;;;;;;2.53;1.00;;;;;;;26.10;50.67;100441.41;8337092;28;20124;-52
2022/07/28 17:03:47;;;;;;;4.75;1.10;;;;;;;26.05;50.74;100449.63;8352101;28;20053;-50
2022/07/28 17:07:49;;;;;;;3.20;1.10;;;;;;;26.26;51.14;100443.41;8350426;28;20035;-49
2022/07/28 17:11:50;;;;;;;3.15;1.10;;;;;;;26.25;50.69;100436.19;8339499;28;20041;-50
2022/07/28 17:15:51;;;;;;;4.93;0.90;;;;;;;26.17;50.74;100436.56;8336107;28;20044;-50
2022/07/28 17:19:52;;;;;;;6.20;1.15;;;;;;;25.90;50.69;100435.38;8327373;28;20516;-50
2022/07/28 17:23:52;;;;;;;4.90;1.00;;;;;;;25.81;51.02;100435.97;8329506;28;20465;-53
2022/07/28 17:27:53;;;;;;;3.03;1.25;;;;;;;25.74;50.85;100447.16;8347799;28;20036;-52
2022/07/28 17:31:53;;;;;;;5.25;1.27;;;;;;;25.65;50.92;100440.31;8321613;28;20038;-51
2022/07/28 17:35:55;;;;;;;4.73;1.27;;;;;;;25.61;51.39;100436.31;8325889;28;20079;-50
2022/07/28 17:39:57;;;;;;;7.38;1.20;;;;;;;25.55;51.29;100439.22;8336021;28;20677;-50
2022/07/28 17:43:57;;;;;;;8.05;1.45;;;;;;;25.46;51.35;100433.19;8344919;28;20073;-50
2022/07/28 17:47:58;;;;;;;4.88;1.02;;;;;;;25.36;51.59;100427.41;8334126;28;20095;-53
2022/07/28 17:51:59;;;;;;;5.15;1.15;;;;;;;25.33;51.47;100438.94;8324227;28;20040;-49
2022/07/28 17:55:59;;;;;;;7.70;1.05;;;;;;;25.27;51.66;100428.78;8341861;28;20175;-49
2022/07/28 18:00:00;;;;;;;3.93;1.13;;;;;;;25.26;51.67;100432.66;8327580;28;20029;-50
2022/07/28 18:04:00;;;;;;;7.30;1.17;;;;;;;25.20;51.97;100428.06;8315345;28;20288;-50
2022/07/28 18:08:00;;;;;;;3.38;1.20;;;;;;;25.14;52.00;100437.31;8327351;28;20315;-49
2022/07/28 18:12:01;;;;;;;6.67;1.50;;;;;;;25.09;52.08;100437.19;8316474;28;20052;-49
2022/07/28 18:16:02;;;;;;;4.73;0.93;;;;;;;25.07;52.15;100442.13;8331372;28;20299;-52
2022/07/28 18:20:02;;;;;;;3.88;1.10;;;;;;;25.02;52.58;100450.28;8325828;28;21183;-52
2022/07/28 18:24:03;;;;;;;5.70;0.88;;;;;;;24.98;52.64;100447.13;8344438;28;20041;-50
2022/07/28 18:28:06;;;;;;;6.75;1.20;;;;;;;24.90;52.64;100453.00;8341037;28;20048;-49
2022/07/28 18:32:07;;;;;;;3.30;1.02;;;;;;;24.88;53.08;100446.00;8327371;28;20413;-50
2022/07/28 18:36:08;;;;;;;5.72;1.30;;;;;;;24.79;53.04;100445.50;8315429;28;20155;-53
2022/07/28 18:40:10;;;;;;;5.15;1.10;;;;;;;24.78;53.05;100442.97;8318797;28;20456;-49
2022/07/28 18:44:10;;;;;;;6.15;0.93;;;;;;;24.72;53.33;100449.44;8331231;28;20048;-52
2022/07/28 18:48:10;;;;;;;3.67;1.20;;;;;;;24.63;53.39;100442.50;8319757;28;20045;-51
2022/07/28 18:52:11;;;;;;;2.25;0.82;;;;;;;24.63;53.38;100442.50;8339933;28;20299;-49
2022/07/28 18:56:11;;;;;;;9.23;1.08;;;;;;;24.51;53.39;100445.22;8349410;28;20041;-49